createdAt,value
2023-08-14T00:01:42.712Z,4.97
2023-08-14T00:04:10.481Z,5.30
2023-08-14T00:06:38.205Z,5.00
2023-08-14T00:09:05.017Z,5.67
2023-08-14T00:11:32.750Z,5.93
2023-08-14T00:14:02.072Z,5.10
2023-08-14T00:16:29.794Z,5.20
2023-08-14T00:18:57.699Z,5.50
2023-08-14T00:21:25.854Z,5.27
2023-08-14T00:23:53.610Z,5.13
2023-08-14T00:26:23.927Z,5.30
2023-08-14T00:28:53.740Z,5.40
2023-08-14T00:31:22.867Z,5.07
2023-08-14T00:33:54.724Z,5.23
2023-08-14T00:36:22.676Z,5.53
2023-08-14T00:38:50.382Z,5.00
2023-08-14T00:41:18.089Z,5.40
2023-08-14T00:43:45.838Z,5.70
2023-08-14T00:46:14.153Z,5.30
2023-08-14T00:48:43.563Z,5.30
2023-08-14T00:51:11.406Z,5.63
2023-08-14T00:53:39.367Z,5.30
2023-08-14T00:56:07.210Z,6.07
2023-08-14T00:58:35.240Z,6.27
2023-08-14T01:01:03.123Z,5.10
2023-08-14T01:03:30.998Z,5.37
2023-08-14T01:06:00.165Z,5.30
2023-08-14T01:08:27.965Z,5.80
2023-08-14T01:11:00.624Z,5.73
2023-08-14T01:13:33.117Z,5.80
2023-08-14T01:16:03.629Z,6.27
2023-08-14T01:18:32.366Z,5.87
2023-08-14T01:21:05.977Z,6.10
2023-08-14T01:23:34.799Z,5.83
2023-08-14T01:26:04.136Z,5.67
2023-08-14T01:28:31.970Z,5.60
2023-08-14T01:30:59.738Z,6.27
2023-08-14T01:33:27.508Z,6.40
2023-08-14T01:35:59.277Z,5.73
2023-08-14T01:38:30.662Z,5.70
2023-08-14T01:41:00.110Z,6.30
2023-08-14T01:43:31.739Z,5.10
2023-08-14T01:45:59.783Z,5.23
2023-08-14T01:48:28.228Z,4.77
2023-08-14T01:50:57.641Z,4.93
2023-08-14T01:53:25.354Z,4.90
2023-08-14T01:55:53.096Z,4.30
2023-08-14T01:58:20.872Z,5.07
2023-08-14T02:00:50.608Z,4.23
2023-08-14T02:03:18.420Z,5.00
2023-08-14T02:05:46.231Z,4.30
2023-08-14T02:08:13.977Z,4.80
2023-08-14T02:10:41.692Z,5.43
2023-08-14T02:13:09.435Z,4.57
2023-08-14T02:15:37.194Z,5.60
2023-08-14T02:18:06.662Z,6.10
2023-08-14T02:20:34.444Z,5.97
2023-08-14T02:23:02.372Z,6.90
2023-08-14T02:25:30.095Z,6.37
2023-08-14T02:27:57.801Z,6.07
2023-08-14T02:30:25.767Z,6.30
2023-08-14T02:32:53.560Z,6.73
2023-08-14T02:35:22.819Z,7.07
2023-08-14T02:37:50.513Z,6.27
2023-08-14T02:40:18.305Z,7.20
2023-08-14T02:42:46.058Z,6.37
2023-08-14T02:45:13.815Z,7.13
2023-08-14T02:47:41.586Z,6.67
2023-08-14T02:50:09.694Z,7.30
2023-08-14T02:52:38.816Z,6.70
2023-08-14T02:55:06.847Z,5.50
2023-08-14T02:57:34.511Z,5.77
2023-08-14T03:00:02.257Z,5.70
2023-08-14T03:02:30.159Z,4.50
2023-08-14T03:04:57.963Z,4.90
2023-08-14T03:07:25.701Z,5.73
2023-08-14T03:09:54.975Z,6.47
2023-08-14T03:12:22.761Z,5.97
2023-08-14T03:14:50.559Z,5.57
2023-08-14T03:17:18.680Z,6.27
2023-08-14T03:19:46.444Z,6.37
2023-08-14T03:22:14.178Z,5.80
2023-08-14T03:24:41.919Z,4.97
2023-08-14T03:27:10.980Z,5.77
2023-08-14T03:29:38.841Z,5.70
2023-08-14T03:32:06.959Z,5.33
2023-08-14T03:34:35.057Z,5.37
2023-08-14T03:37:05.460Z,5.43
2023-08-14T03:39:33.387Z,4.90
2023-08-14T03:42:03.978Z,5.63
2023-08-14T03:44:33.180Z,4.90
2023-08-14T03:47:01.428Z,5.53
2023-08-14T03:49:30.684Z,5.37
2023-08-14T03:52:01.279Z,5.03
2023-08-14T03:54:29.029Z,5.50
2023-08-14T03:56:56.878Z,5.33
2023-08-14T03:59:24.650Z,5.80
2023-08-14T04:01:53.829Z,4.80
2023-08-14T04:04:21.628Z,4.67
2023-08-14T04:06:49.677Z,4.37
2023-08-14T04:09:17.356Z,4.40
2023-08-14T04:11:45.147Z,3.80
2023-08-14T04:14:12.913Z,4.13
2023-08-14T04:16:45.211Z,3.93
2023-08-14T04:19:16.012Z,3.53
2023-08-14T04:21:43.908Z,4.30
2023-08-14T04:24:11.879Z,3.70
2023-08-14T04:26:39.817Z,4.00
2023-08-14T04:29:08.007Z,3.50
2023-08-14T04:31:35.838Z,3.13
2023-08-14T04:34:03.928Z,3.30
2023-08-14T04:36:33.567Z,3.47
2023-08-14T04:39:01.313Z,3.60
2023-08-14T04:41:29.316Z,3.47
2023-08-14T04:43:57.039Z,3.10
2023-08-14T04:46:38.218Z,2.80
2023-08-14T04:49:13.042Z,3.13
2023-08-14T04:51:42.377Z,3.50
2023-08-14T04:54:10.331Z,3.30
2023-08-14T04:56:38.315Z,3.30
2023-08-14T04:59:06.078Z,3.23
2023-08-14T05:01:34.622Z,3.20
2023-08-14T05:04:02.760Z,3.83
2023-08-14T05:06:30.497Z,3.50
2023-08-14T05:09:02.136Z,4.00
2023-08-14T05:11:32.616Z,3.60
2023-08-14T05:14:00.346Z,3.90
2023-08-14T05:16:28.184Z,3.67
2023-08-14T05:18:56.020Z,3.50
2023-08-14T05:21:23.751Z,4.07
2023-08-14T05:23:51.592Z,3.97
2023-08-14T05:26:20.882Z,3.73
2023-08-14T05:28:51.197Z,3.10
2023-08-14T05:31:19.003Z,3.70
2023-08-14T05:33:47.466Z,3.10
2023-08-14T05:36:15.406Z,3.77
2023-08-14T05:38:45.810Z,3.60
2023-08-14T05:41:13.530Z,3.47
2023-08-14T05:43:42.707Z,3.73
2023-08-14T05:46:10.408Z,3.87
2023-08-14T05:48:38.165Z,3.80
2023-08-14T05:51:05.884Z,3.50
2023-08-14T05:53:33.699Z,3.83
2023-08-14T05:56:01.468Z,3.77
2023-08-14T05:58:32.627Z,3.67
2023-08-14T06:01:01.799Z,3.97
2023-08-14T06:03:43.329Z,3.13
2023-08-14T06:06:12.512Z,3.60
2023-08-14T06:08:40.395Z,3.67
2023-08-14T06:11:08.224Z,3.47
2023-08-14T06:13:35.929Z,3.17
2023-08-14T06:16:05.209Z,3.60
2023-08-14T06:18:32.933Z,3.23
2023-08-14T06:21:00.655Z,2.60
2023-08-14T06:23:28.418Z,3.37
2023-08-14T06:25:56.124Z,3.60
2023-08-14T06:28:23.850Z,3.10
2023-08-14T06:30:51.604Z,3.97
2023-08-14T06:33:20.724Z,3.67
2023-08-14T06:35:48.428Z,3.90
2023-08-14T06:38:16.277Z,3.70
2023-08-14T06:40:45.396Z,4.10
2023-08-14T06:43:13.130Z,4.23
2023-08-14T06:45:40.957Z,3.80
2023-08-14T06:48:08.805Z,3.73
2023-08-14T06:50:38.014Z,3.43
2023-08-14T06:53:05.866Z,3.57
2023-08-14T06:55:33.542Z,4.63
2023-08-14T06:58:01.273Z,3.67
2023-08-14T07:00:29.472Z,3.80
2023-08-14T07:02:57.265Z,3.67
2023-08-14T07:05:25.205Z,3.97
2023-08-14T07:07:54.833Z,3.60
2023-08-14T07:10:22.784Z,3.30
2023-08-14T07:12:50.557Z,3.23
2023-08-14T07:15:18.311Z,3.93
2023-08-14T07:17:46.088Z,3.37
2023-08-14T07:20:14.557Z,3.90
2023-08-14T07:22:42.454Z,3.77
2023-08-14T07:25:12.804Z,3.80
2023-08-14T07:27:40.549Z,3.40
2023-08-14T07:30:09.344Z,3.10
2023-08-14T07:32:37.288Z,3.10
2023-08-14T07:35:05.316Z,3.43
2023-08-14T07:37:33.081Z,3.40
2023-08-14T07:40:01.244Z,3.30
2023-08-14T07:42:30.331Z,3.33
2023-08-14T07:44:58.082Z,3.30
2023-08-14T07:47:25.905Z,3.23
2023-08-14T07:49:53.710Z,3.17
2023-08-14T07:52:21.696Z,3.77
2023-08-14T07:54:52.938Z,3.20
2023-08-14T07:57:20.717Z,3.40
2023-08-14T07:59:49.811Z,3.60
2023-08-14T08:02:17.789Z,3.50
2023-08-14T08:04:45.685Z,3.43
2023-08-14T08:07:13.440Z,4.27
2023-08-14T08:09:41.153Z,3.53
2023-08-14T08:12:09.458Z,3.33
2023-08-14T08:14:37.436Z,3.10
2023-08-14T08:17:06.630Z,3.83
2023-08-14T08:19:34.362Z,3.60
2023-08-14T08:22:03.018Z,3.30
2023-08-14T08:24:30.770Z,3.73
2023-08-14T08:26:58.488Z,3.23
2023-08-14T08:29:26.198Z,3.30
2023-08-14T08:31:53.978Z,3.90
2023-08-14T08:34:23.115Z,3.40
2023-08-14T08:36:50.977Z,3.20
2023-08-14T08:39:19.637Z,3.10
2023-08-14T08:41:49.052Z,3.63
2023-08-14T08:44:20.210Z,3.80
2023-08-14T08:46:50.029Z,3.30
2023-08-14T08:49:17.855Z,3.50
2023-08-14T08:51:48.822Z,3.50
2023-08-14T08:54:18.374Z,3.00
2023-08-14T08:56:46.503Z,3.73
2023-08-14T08:59:14.944Z,3.47
2023-08-14T09:01:43.325Z,3.63
2023-08-14T09:04:11.287Z,3.37
2023-08-14T09:06:39.101Z,3.20
2023-08-14T09:09:09.052Z,3.00
2023-08-14T09:11:36.820Z,3.50
2023-08-14T09:14:04.954Z,3.30
2023-08-14T09:16:32.759Z,3.20
2023-08-14T09:19:01.106Z,3.20
2023-08-14T09:21:29.547Z,3.13
2023-08-14T09:23:57.590Z,2.87
2023-08-14T09:26:27.559Z,2.93
2023-08-14T09:28:55.321Z,3.00
2023-08-14T09:31:23.054Z,3.13
2023-08-14T09:33:50.771Z,3.13
2023-08-14T09:36:18.636Z,2.63
2023-08-14T09:38:46.439Z,3.00
2023-08-14T09:41:14.705Z,2.47
2023-08-14T09:43:46.595Z,2.20
2023-08-14T09:46:16.007Z,2.20
2023-08-14T09:48:44.450Z,3.33
2023-08-14T09:51:13.998Z,3.70
2023-08-14T09:53:45.569Z,3.33
2023-08-14T09:56:14.006Z,3.53
2023-08-14T09:58:43.556Z,3.65
2023-08-14T10:01:13.481Z,3.28
2023-08-14T10:03:42.041Z,3.05
2023-08-14T10:06:11.882Z,3.20
2023-08-14T10:08:40.845Z,3.50
2023-08-14T10:11:18.828Z,4.03
2023-08-14T10:13:53.308Z,2.53
2023-08-14T10:16:23.901Z,2.40
2023-08-14T10:18:54.645Z,2.05
2023-08-14T10:21:22.550Z,2.05
2023-08-14T10:23:51.238Z,1.83
2023-08-14T10:26:19.222Z,2.05
2023-08-14T10:28:48.950Z,2.65
2023-08-14T10:31:17.004Z,1.90
2023-08-14T10:33:45.330Z,2.03
2023-08-14T10:36:20.205Z,2.10
2023-08-14T10:41:24.045Z,2.28
2023-08-14T10:43:53.551Z,2.05
2023-08-14T10:46:21.620Z,2.28
2023-08-14T10:48:50.769Z,2.13
2023-08-14T10:51:21.911Z,2.50
2023-08-14T10:53:49.718Z,2.17
2023-08-14T10:56:18.789Z,2.65
2023-08-14T10:58:50.084Z,2.08
2023-08-14T11:01:19.633Z,2.00
2023-08-14T11:04:01.797Z,1.98
2023-08-14T11:06:30.873Z,2.28
2023-08-14T11:09:00.220Z,2.42
2023-08-14T11:11:28.428Z,2.20
2023-08-14T11:13:56.644Z,2.30
2023-08-14T11:16:25.942Z,2.42
2023-08-14T11:18:55.141Z,2.20
2023-08-14T11:21:31.968Z,2.22
2023-08-14T11:24:01.665Z,2.03
2023-08-14T11:26:33.198Z,2.15
2023-08-14T11:29:01.512Z,3.95
2023-08-14T11:31:38.069Z,13.30
2023-08-14T11:34:09.541Z,2.72
2023-08-14T11:36:41.094Z,2.30
2023-08-14T11:39:08.874Z,2.03
2023-08-14T11:41:36.743Z,3.20
2023-08-14T11:44:04.758Z,2.72
2023-08-14T11:46:34.665Z,2.05
2023-08-14T11:49:02.448Z,1.98
2023-08-14T11:51:30.851Z,2.28
2023-08-14T11:53:58.639Z,2.10
2023-08-14T11:56:27.193Z,2.30
2023-08-14T11:59:06.450Z,1.88
2023-08-14T12:01:38.875Z,1.75
2023-08-14T12:04:07.277Z,1.73
2023-08-14T12:06:35.768Z,2.13
2023-08-14T12:09:08.147Z,2.00
2023-08-14T12:11:35.954Z,2.22
2023-08-14T12:14:05.434Z,2.30
2023-08-14T12:16:33.265Z,1.85
2023-08-14T12:19:04.340Z,2.33
2023-08-14T12:21:32.425Z,2.17
2023-08-14T12:24:00.142Z,1.60
2023-08-14T12:26:27.888Z,2.40
2023-08-14T12:28:55.616Z,2.22
2023-08-14T12:31:23.313Z,2.08
2023-08-14T12:33:56.295Z,2.47
2023-08-14T12:36:28.779Z,2.25
2023-08-14T12:38:57.008Z,2.20
2023-08-14T12:41:25.186Z,2.25
2023-08-14T12:43:53.405Z,2.30
2023-08-14T12:46:21.542Z,2.28
2023-08-14T12:48:49.254Z,2.05
2023-08-14T12:51:17.020Z,1.92
2023-08-14T12:53:46.080Z,2.10
2023-08-14T12:56:18.184Z,2.28
2023-08-14T12:58:49.982Z,1.85
2023-08-14T13:01:18.092Z,2.03
2023-08-14T13:03:45.864Z,1.73
2023-08-14T13:06:13.581Z,2.28
2023-08-14T13:08:41.848Z,1.70
2023-08-14T13:11:10.951Z,2.80
2023-08-14T13:13:38.717Z,1.80
2023-08-14T13:16:07.614Z,2.30
2023-08-14T13:18:35.346Z,2.00
2023-08-14T13:21:03.091Z,1.83
2023-08-14T13:23:30.838Z,2.20
2023-08-14T13:25:58.584Z,1.80
2023-08-14T13:28:27.763Z,2.00
2023-08-14T13:30:55.565Z,1.95
2023-08-14T13:33:23.285Z,2.13
2023-08-14T13:35:51.001Z,2.28
2023-08-14T13:38:18.728Z,2.38
2023-08-14T13:40:46.459Z,1.70
2023-08-14T13:43:14.665Z,2.00
2023-08-14T13:45:44.502Z,1.67
2023-08-14T13:48:12.535Z,1.73
2023-08-14T13:50:43.060Z,2.15
2023-08-14T13:53:11.041Z,1.70
2023-08-14T13:55:38.847Z,1.88
2023-08-14T13:58:06.605Z,1.70
2023-08-14T14:00:34.324Z,2.83
2023-08-14T14:03:05.812Z,1.88
2023-08-14T14:05:33.739Z,1.95
2023-08-14T14:08:01.894Z,1.92
2023-08-14T14:10:29.936Z,2.10
2023-08-14T14:15:28.237Z,2.40
2023-08-14T14:17:56.317Z,1.70
2023-08-14T14:20:25.884Z,1.60
2023-08-14T14:22:53.573Z,2.08
2023-08-14T14:25:21.329Z,2.00
2023-08-14T14:27:49.095Z,1.83
2023-08-14T14:30:16.976Z,1.90
2023-08-14T14:32:44.696Z,1.85
2023-08-14T14:35:15.126Z,2.10
2023-08-14T14:37:44.384Z,1.98
2023-08-14T14:40:12.505Z,1.92
2023-08-14T14:42:40.182Z,2.13
2023-08-14T14:45:10.430Z,2.03
2023-08-14T14:47:43.012Z,1.77
2023-08-14T14:50:23.944Z,1.90
2023-08-14T14:52:57.679Z,2.00
2023-08-14T14:55:27.762Z,1.95
2023-08-14T14:57:55.468Z,1.65
2023-08-14T15:00:24.211Z,1.75
2023-08-14T15:02:52.695Z,3.35
2023-08-14T15:07:51.067Z,1.80
2023-08-14T15:10:20.261Z,2.50
2023-08-14T15:12:47.973Z,2.05
2023-08-14T15:15:15.758Z,1.63
2023-08-14T15:17:44.942Z,2.20
2023-08-14T15:20:14.134Z,2.33
2023-08-14T15:22:44.261Z,2.05
2023-08-14T15:25:13.019Z,2.55
2023-08-14T15:27:42.286Z,2.40
2023-08-14T15:30:12.740Z,2.35
2023-08-14T15:32:40.583Z,3.03
2023-08-14T15:35:08.681Z,2.25
2023-08-14T15:37:36.626Z,2.90
2023-08-14T15:40:05.348Z,3.13
2023-08-14T15:42:33.118Z,2.63
2023-08-14T15:45:02.412Z,2.75
2023-08-14T15:47:30.968Z,2.53
2023-08-14T15:49:58.758Z,2.55
2023-08-14T15:52:29.960Z,2.60
2023-08-14T15:54:58.090Z,2.85
2023-08-14T15:57:26.434Z,2.50
2023-08-14T15:59:54.275Z,3.00
2023-08-14T16:02:23.676Z,3.05
2023-08-14T16:04:51.567Z,3.45
2023-08-14T16:07:19.731Z,3.42
2023-08-14T16:09:49.970Z,3.13
2023-08-14T16:12:18.029Z,2.88
2023-08-14T16:14:46.099Z,3.63
2023-08-14T16:17:14.188Z,3.20
2023-08-14T16:19:43.599Z,3.45
2023-08-14T16:22:11.727Z,3.25
2023-08-14T16:24:41.632Z,3.22
2023-08-14T16:27:10.687Z,3.42
2023-08-14T16:29:38.672Z,3.25
2023-08-14T16:32:06.841Z,2.85
2023-08-14T16:34:35.233Z,2.80
2023-08-14T16:37:05.336Z,3.33
2023-08-14T16:39:35.165Z,2.97
2023-08-14T16:42:03.008Z,2.97
2023-08-14T16:44:35.495Z,2.92
2023-08-14T16:47:03.417Z,2.70
2023-08-14T16:49:32.417Z,2.95
2023-08-14T16:52:00.405Z,2.67
2023-08-14T16:54:29.863Z,3.92
2023-08-14T16:56:57.730Z,3.65
2023-08-14T16:59:25.453Z,3.42
2023-08-14T17:01:53.315Z,3.20
2023-08-14T17:04:21.183Z,3.92
2023-08-14T17:06:49.061Z,3.13
2023-08-14T17:09:16.886Z,3.05
2023-08-14T17:11:45.946Z,3.92
2023-08-14T17:14:14.064Z,3.15
2023-08-14T17:16:41.959Z,3.20
2023-08-14T17:19:09.723Z,3.40
2023-08-14T17:21:37.460Z,3.47
2023-08-14T17:24:05.624Z,3.70
2023-08-14T17:26:33.396Z,3.17
2023-08-14T17:29:03.289Z,3.20
2023-08-14T17:31:30.997Z,3.38
2023-08-14T17:33:58.894Z,2.75
2023-08-14T17:36:26.639Z,3.28
2023-08-14T17:38:54.704Z,3.50
2023-08-14T17:41:22.598Z,3.15
2023-08-14T17:43:50.328Z,2.75
2023-08-14T17:46:19.646Z,3.40
2023-08-14T17:48:47.370Z,2.92
2023-08-14T17:51:15.064Z,2.80
2023-08-14T17:53:42.807Z,3.03
2023-08-14T17:56:10.635Z,3.30
2023-08-14T17:58:38.362Z,3.05
2023-08-14T18:01:06.110Z,3.20
2023-08-14T18:03:35.311Z,2.40
2023-08-14T18:06:04.579Z,2.75
2023-08-14T18:08:33.019Z,2.60
2023-08-14T18:11:02.523Z,2.80
2023-08-14T18:13:30.407Z,2.85
2023-08-14T18:16:00.139Z,3.05
2023-08-14T18:18:28.342Z,2.80
2023-08-14T18:20:57.480Z,3.20
2023-08-14T18:23:25.182Z,2.65
2023-08-14T18:25:53.509Z,2.55
2023-08-14T18:28:21.340Z,2.75
2023-08-14T18:30:49.070Z,3.30
2023-08-14T18:33:16.903Z,2.17
2023-08-14T18:35:44.619Z,2.45
2023-08-14T18:38:13.835Z,2.08
2023-08-14T18:40:44.820Z,2.53
2023-08-14T18:43:12.516Z,2.70
2023-08-14T18:45:40.842Z,2.40
2023-08-14T18:48:09.277Z,2.55
2023-08-14T18:50:36.986Z,2.72
2023-08-14T18:53:05.545Z,2.45
2023-08-14T18:55:38.998Z,2.03
2023-08-14T18:58:06.915Z,1.88
2023-08-14T19:00:35.498Z,2.40
2023-08-14T19:03:03.288Z,2.20
2023-08-14T19:05:31.048Z,2.42
2023-08-14T19:07:58.774Z,2.08
2023-08-14T19:10:28.888Z,2.55
2023-08-14T19:12:58.141Z,2.40
2023-08-14T19:15:26.086Z,2.60
2023-08-14T19:17:53.886Z,2.80
2023-08-14T19:20:21.630Z,2.42
2023-08-14T19:22:50.486Z,2.50
2023-08-14T19:25:18.340Z,2.47
2023-08-14T19:27:46.105Z,2.25
2023-08-14T19:30:15.596Z,2.20
2023-08-14T19:32:43.814Z,2.08
2023-08-14T19:35:11.555Z,2.15
2023-08-14T19:37:39.318Z,1.95
2023-08-14T19:40:10.987Z,1.85
2023-08-14T19:42:38.860Z,1.90
2023-08-14T19:45:08.911Z,2.00
2023-08-14T19:47:38.059Z,2.20
2023-08-14T19:50:06.342Z,1.85
2023-08-14T19:52:34.105Z,2.00
2023-08-14T19:55:01.823Z,2.10
2023-08-14T19:57:29.495Z,2.10
2023-08-14T19:59:57.172Z,2.00
2023-08-14T20:02:25.566Z,2.05
2023-08-14T20:04:54.743Z,2.03
2023-08-14T20:07:22.435Z,1.98
2023-08-14T20:09:50.194Z,1.80
2023-08-14T20:12:17.902Z,1.60
2023-08-14T20:14:45.655Z,2.15
2023-08-14T20:17:13.449Z,1.73
2023-08-14T20:19:41.201Z,2.15
2023-08-14T20:22:10.362Z,1.98
2023-08-14T20:24:38.084Z,2.00
2023-08-14T20:27:06.483Z,2.20
2023-08-14T20:29:34.144Z,2.03
2023-08-14T20:32:03.023Z,2.03
2023-08-14T20:34:30.885Z,1.80
2023-08-14T20:36:58.600Z,2.10
2023-08-14T20:39:29.231Z,1.90
2023-08-14T20:41:56.955Z,1.90
2023-08-14T20:44:24.721Z,3.00
2023-08-14T20:46:52.410Z,1.60
2023-08-14T20:49:20.099Z,1.80
2023-08-14T20:51:47.819Z,1.60
2023-08-14T20:54:15.547Z,1.90
2023-08-14T20:56:44.719Z,1.85
2023-08-14T20:59:12.452Z,1.70
2023-08-14T21:01:40.249Z,1.55
2023-08-14T21:04:08.040Z,1.58
2023-08-14T21:06:35.758Z,1.80
2023-08-14T21:09:03.797Z,1.63
2023-08-14T21:11:31.538Z,1.95
2023-08-14T21:14:00.587Z,1.80
2023-08-14T21:16:28.320Z,1.70
2023-08-14T21:18:56.283Z,1.63
2023-08-14T21:21:23.983Z,1.90
2023-08-14T21:23:51.649Z,1.13
2023-08-14T21:26:19.325Z,1.52
2023-08-14T21:28:47.003Z,1.88
2023-08-14T21:31:16.103Z,1.38
2023-08-14T21:33:43.901Z,1.50
2023-08-14T21:36:11.594Z,1.40
2023-08-14T21:38:39.346Z,1.35
2023-08-14T21:41:07.245Z,1.27
2023-08-14T21:43:34.985Z,1.38
2023-08-14T21:46:02.858Z,1.80
2023-08-14T21:48:31.999Z,1.85
2023-08-14T21:50:59.719Z,1.13
2023-08-14T21:53:27.439Z,1.40
2023-08-14T21:55:55.183Z,1.38
2023-08-14T21:58:22.864Z,1.40
2023-08-14T22:00:50.624Z,1.40
2023-08-14T22:03:18.420Z,1.40
2023-08-14T22:05:47.527Z,1.60
2023-08-14T22:08:15.405Z,1.30
2023-08-14T22:10:43.164Z,1.40
2023-08-14T22:13:11.263Z,1.45
2023-08-14T22:15:45.868Z,1.60
2023-08-14T22:18:15.149Z,1.50
2023-08-14T22:20:42.996Z,1.50
2023-08-14T22:23:13.750Z,1.65
2023-08-14T22:25:42.575Z,1.40
2023-08-14T22:28:10.349Z,1.63
2023-08-14T22:30:38.101Z,1.80
2023-08-14T22:33:06.124Z,1.60
2023-08-14T22:35:33.916Z,1.60
2023-08-14T22:38:01.649Z,1.65
2023-08-14T22:40:30.801Z,1.60
2023-08-14T22:42:58.594Z,1.42
2023-08-14T22:45:26.380Z,1.40
2023-08-14T22:47:54.122Z,1.85
2023-08-14T22:50:21.821Z,1.50
2023-08-14T22:52:49.493Z,1.42
2023-08-14T22:55:17.181Z,1.60
2023-08-14T22:57:46.286Z,1.45
2023-08-14T23:00:14.396Z,1.70
2023-08-14T23:02:42.531Z,1.50
2023-08-14T23:05:10.722Z,1.33
2023-08-14T23:07:38.498Z,1.40
2023-08-14T23:10:07.031Z,1.70
2023-08-14T23:12:34.755Z,2.05
2023-08-14T23:15:03.907Z,2.15
2023-08-14T23:17:31.671Z,1.70
2023-08-14T23:19:59.386Z,1.55
2023-08-14T23:22:27.069Z,1.30
2023-08-14T23:24:54.747Z,1.55
2023-08-14T23:27:22.601Z,1.20
2023-08-14T23:29:50.692Z,1.20
2023-08-14T23:32:19.857Z,1.50
2023-08-14T23:34:47.524Z,1.30
2023-08-14T23:37:15.322Z,1.20
2023-08-14T23:39:43.013Z,1.23
2023-08-14T23:42:10.722Z,1.13
2023-08-14T23:44:39.154Z,1.20
2023-08-14T23:47:07.021Z,1.30
2023-08-14T23:49:36.096Z,1.35
2023-08-14T23:52:04.014Z,1.17
2023-08-14T23:54:31.844Z,1.33
2023-08-14T23:56:59.649Z,1.80
2023-08-14T23:59:27.395Z,1.33
